createdAt,value
2022-08-10T00:00:33.230Z,23.12
2022-08-10T00:01:37.290Z,22.92
2022-08-10T00:02:39.185Z,22.84
2022-08-10T00:03:40.640Z,22.92
2022-08-10T00:04:42.121Z,22.96
2022-08-10T00:05:52.505Z,22.96
2022-08-10T00:06:55.171Z,22.95
2022-08-10T00:07:57.046Z,23.01
2022-08-10T00:08:58.668Z,22.9
2022-08-10T00:10:00.245Z,22.92
2022-08-10T00:11:01.804Z,22.96
2022-08-10T00:12:05.475Z,22.95
2022-08-10T00:13:06.996Z,23
2022-08-10T00:14:08.473Z,22.96
2022-08-10T00:15:10.014Z,22.98
2022-08-10T00:16:56.813Z,23
2022-08-10T00:17:58.416Z,22.89
2022-08-10T00:18:59.876Z,22.74
2022-08-10T00:20:02.297Z,22.68
2022-08-10T00:21:10.274Z,22.6
2022-08-10T00:22:11.836Z,22.61
2022-08-10T00:23:18.608Z,22.47
2022-08-10T00:24:20.181Z,22.54
2022-08-10T00:25:21.685Z,22.54
2022-08-10T00:26:23.173Z,22.4
2022-08-10T00:27:50.210Z,22.55
2022-08-10T00:29:05.613Z,22.45
2022-08-10T00:30:13.366Z,22.5
2022-08-10T00:31:14.885Z,22.35
2022-08-10T00:32:16.391Z,22.31
2022-08-10T00:33:17.926Z,22.28
2022-08-10T00:34:19.407Z,22.4
2022-08-10T00:35:20.957Z,22.38
2022-08-10T00:36:22.408Z,22.3
2022-08-10T00:37:23.934Z,21.97
2022-08-10T00:38:25.540Z,21.85
2022-08-10T00:39:27.025Z,21.77
2022-08-10T00:40:35.279Z,21.74
2022-08-10T00:41:39.582Z,21.47
2022-08-10T00:42:41.118Z,21.36
2022-08-10T00:43:42.571Z,21.31
2022-08-10T00:44:44.180Z,21.38
2022-08-10T00:45:45.695Z,21.42
2022-08-10T00:47:01.863Z,21.44
2022-08-10T00:48:03.390Z,21.46
2022-08-10T00:49:04.980Z,21.44
2022-08-10T00:50:06.440Z,21.44
2022-08-10T00:51:07.998Z,21.3
2022-08-10T00:52:09.583Z,21.23
2022-08-10T00:53:11.210Z,21
2022-08-10T00:54:24.302Z,20.85
2022-08-10T00:55:26.675Z,20.9
2022-08-10T00:56:35.558Z,20.93
2022-08-10T00:58:19.967Z,21.11
2022-08-10T00:59:21.571Z,21.13
2022-08-10T01:00:23.053Z,21.18
2022-08-10T01:02:08.000Z,21.3
2022-08-10T01:03:13.343Z,21.47
2022-08-10T01:04:35.971Z,21.56
2022-08-10T01:06:04.243Z,21.67
2022-08-10T01:07:05.684Z,21.65
2022-08-10T01:08:07.318Z,21.66
2022-08-10T01:09:08.830Z,21.74
2022-08-10T01:10:10.378Z,21.59
2022-08-10T01:12:27.865Z,21.55
2022-08-10T01:13:43.393Z,22.03
2022-08-10T01:14:44.996Z,22.21
2022-08-10T01:15:46.420Z,22.14
2022-08-10T01:16:47.863Z,22.02
2022-08-10T01:17:50.072Z,21.79
2022-08-10T01:18:53.095Z,21.83
2022-08-10T01:19:54.595Z,21.96
2022-08-10T01:20:56.021Z,21.66
2022-08-10T01:21:57.525Z,21.61
2022-08-10T01:22:59.028Z,21.59
2022-08-10T01:24:00.531Z,21.68
2022-08-10T01:25:01.991Z,21.63
2022-08-10T01:26:10.289Z,21.76
2022-08-10T01:27:33.213Z,21.75
2022-08-10T01:28:34.717Z,21.74
2022-08-10T01:29:36.199Z,21.74
2022-08-10T01:30:37.645Z,21.66
2022-08-10T01:31:39.101Z,21.68
2022-08-10T01:32:40.563Z,21.64
2022-08-10T01:33:57.908Z,21.64
2022-08-10T01:35:04.109Z,21.7
2022-08-10T01:36:05.599Z,21.7
2022-08-10T01:37:07.072Z,21.63
2022-08-10T01:38:08.643Z,21.49
2022-08-10T01:39:10.165Z,21.32
2022-08-10T01:40:11.938Z,21.28
2022-08-10T01:41:18.137Z,21.19
2022-08-10T01:42:19.665Z,21.11
2022-08-10T01:43:21.168Z,21.13
2022-08-10T01:44:22.801Z,20.9
2022-08-10T01:45:24.305Z,20.81
2022-08-10T01:46:25.909Z,20.79
2022-08-10T01:47:27.516Z,20.82
2022-08-10T01:48:30.014Z,20.83
2022-08-10T01:49:31.595Z,20.56
2022-08-10T01:50:33.061Z,20.53
2022-08-10T01:51:34.606Z,20.49
2022-08-10T01:52:36.273Z,20.42
2022-08-10T01:53:39.912Z,20.55
2022-08-10T01:54:43.163Z,20.67
2022-08-10T01:55:44.699Z,20.59
2022-08-10T01:56:46.190Z,20.47
2022-08-10T01:57:47.836Z,20.65
2022-08-10T01:58:49.306Z,20.57
2022-08-10T01:59:54.510Z,20.53
2022-08-10T02:01:04.947Z,20.31
2022-08-10T02:02:06.595Z,20.42
2022-08-10T02:03:08.133Z,20.41
2022-08-10T02:04:09.768Z,20.3
2022-08-10T02:05:11.351Z,20.28
2022-08-10T02:06:12.894Z,20.34
2022-08-10T02:07:14.400Z,20.24
2022-08-10T02:08:15.915Z,20.21
2022-08-10T02:09:17.556Z,20.41
2022-08-10T02:10:19.208Z,20.59
2022-08-10T02:11:20.854Z,20.59
2022-08-10T02:12:22.439Z,20.63
2022-08-10T02:13:23.959Z,20.58
2022-08-10T02:14:25.407Z,20.65
2022-08-10T02:15:36.178Z,20.53
2022-08-10T02:17:02.623Z,20.69
2022-08-10T02:18:04.107Z,20.78
2022-08-10T02:19:05.671Z,20.79
2022-08-10T02:20:09.096Z,20.71
2022-08-10T02:21:10.604Z,20.58
2022-08-10T02:22:35.564Z,20.76
2022-08-10T02:23:56.153Z,20.64
2022-08-10T02:25:02.000Z,20.8
2022-08-10T02:26:03.616Z,20.78
2022-08-10T02:27:05.068Z,20.77
2022-08-10T02:28:06.619Z,20.88
2022-08-10T02:29:08.213Z,20.76
2022-08-10T02:30:09.726Z,20.68
2022-08-10T02:31:11.975Z,20.53
2022-08-10T02:32:17.300Z,20.56
2022-08-10T02:33:56.923Z,20.53
2022-08-10T02:35:00.861Z,20.74
2022-08-10T02:36:04.502Z,20.8
2022-08-10T02:37:10.638Z,20.76
2022-08-10T02:38:14.873Z,20.55
2022-08-10T02:39:16.479Z,20.6
2022-08-10T02:42:19.014Z,20.5
2022-08-10T02:46:33.410Z,20.5
2022-08-10T02:47:46.859Z,20.56
2022-08-10T02:48:54.130Z,20.48
2022-08-10T02:49:56.006Z,20.28
2022-08-10T02:50:57.600Z,20.3
2022-08-10T02:52:06.010Z,20.13
2022-08-10T02:53:10.423Z,20.03
2022-08-10T02:54:58.813Z,20.01
2022-08-10T02:56:19.891Z,20.16
2022-08-10T02:57:24.012Z,20.21
2022-08-10T02:58:25.629Z,20.33
2022-08-10T02:59:27.224Z,20.26
2022-08-10T03:00:41.969Z,20.2
2022-08-10T03:01:43.687Z,20.22
2022-08-10T03:02:45.207Z,20.17
2022-08-10T03:03:46.736Z,20.21
2022-08-10T03:04:54.313Z,20.2
2022-08-10T03:05:59.888Z,20.15
2022-08-10T03:07:01.393Z,20.15
2022-08-10T03:08:02.937Z,20.04
2022-08-10T03:09:04.482Z,19.95
2022-08-10T03:10:11.162Z,19.9
2022-08-10T03:11:16.323Z,19.8
2022-08-10T03:13:40.080Z,19.93
2022-08-10T03:14:41.570Z,19.64
2022-08-10T03:15:43.006Z,19.55
2022-08-10T03:16:44.502Z,19.56
2022-08-10T03:17:57.278Z,19.41
2022-08-10T03:19:00.489Z,19.36
2022-08-10T03:20:04.145Z,19.39
2022-08-10T03:21:41.706Z,19.39
2022-08-10T03:22:43.185Z,19.47
2022-08-10T03:23:44.711Z,19.46
2022-08-10T03:24:46.188Z,19.43
2022-08-10T03:25:52.901Z,19.45
2022-08-10T03:26:56.281Z,19.41
2022-08-10T03:27:57.743Z,19.52
2022-08-10T03:28:59.325Z,19.57
2022-08-10T03:30:25.734Z,19.47
2022-08-10T03:31:35.962Z,19.43
2022-08-10T03:32:41.759Z,19.5
2022-08-10T03:33:43.286Z,19.58
2022-08-10T03:34:44.823Z,19.59
2022-08-10T03:36:40.951Z,19.47
2022-08-10T03:37:46.660Z,19.47
2022-08-10T03:38:48.158Z,19.4
2022-08-10T03:39:49.693Z,19.41
2022-08-10T03:40:51.449Z,19.46
2022-08-10T03:41:53.233Z,19.6
2022-08-10T03:42:57.091Z,19.43
2022-08-10T03:43:58.591Z,19.59
2022-08-10T03:45:00.134Z,19.5
2022-08-10T03:46:01.723Z,19.61
2022-08-10T03:47:03.227Z,19.52
2022-08-10T03:48:17.882Z,19.44
2022-08-10T03:49:19.333Z,19.34
2022-08-10T03:50:27.542Z,19.45
2022-08-10T03:51:54.160Z,19.45
2022-08-10T03:52:58.015Z,19.54
2022-08-10T03:54:04.113Z,19.54
2022-08-10T03:55:08.964Z,19.36
2022-08-10T03:56:27.551Z,19.22
2022-08-10T03:57:34.504Z,19.22
2022-08-10T03:58:42.967Z,19.15
2022-08-10T03:59:44.507Z,19.04
2022-08-10T04:00:46.057Z,19.08
2022-08-10T04:02:42.355Z,19.06
2022-08-10T04:04:11.734Z,19.08
2022-08-10T04:05:25.639Z,19.39
2022-08-10T04:06:40.468Z,19.34
2022-08-10T04:07:42.018Z,19.1
2022-08-10T04:08:43.560Z,19.75
2022-08-10T04:09:54.848Z,19.19
2022-08-10T04:11:00.258Z,19.3
2022-08-10T04:12:01.763Z,19.45
2022-08-10T04:13:03.177Z,19.03
2022-08-10T04:14:04.699Z,18.98
2022-08-10T04:15:06.217Z,18.94
2022-08-10T04:16:07.742Z,18.93
2022-08-10T04:17:13.468Z,19.12
2022-08-10T04:18:15.639Z,19.2
2022-08-10T04:19:17.123Z,19.36
2022-08-10T04:20:18.896Z,19.45
2022-08-10T04:21:20.499Z,19.35
2022-08-10T04:22:21.984Z,19.2
2022-08-10T04:23:23.563Z,19.17
2022-08-10T04:24:27.148Z,19.03
2022-08-10T04:25:34.593Z,19.04
2022-08-10T04:26:36.101Z,19.06
2022-08-10T04:27:37.635Z,19.26
2022-08-10T04:28:39.133Z,19.28
2022-08-10T04:29:40.627Z,19.55
2022-08-10T04:30:42.147Z,19.5
2022-08-10T04:31:43.608Z,19.58
2022-08-10T04:32:45.245Z,19.47
2022-08-10T04:33:46.771Z,19.58
2022-08-10T04:34:48.319Z,19.56
2022-08-10T04:35:49.742Z,19.34
2022-08-10T04:36:51.244Z,19.26
2022-08-10T04:37:52.827Z,19.26
2022-08-10T04:38:54.334Z,19.21
2022-08-10T04:39:55.778Z,18.97
2022-08-10T04:40:57.365Z,19.2
2022-08-10T04:41:58.877Z,18.95
2022-08-10T04:43:02.554Z,18.82
2022-08-10T04:44:14.737Z,19
2022-08-10T04:45:16.341Z,18.95
2022-08-10T04:46:40.293Z,19.02
2022-08-10T04:48:03.433Z,19.18
2022-08-10T04:49:05.175Z,18.79
2022-08-10T04:50:58.387Z,18.93
2022-08-10T04:52:02.177Z,18.96
2022-08-10T04:53:03.680Z,19.6
2022-08-10T04:54:07.194Z,19.33
2022-08-10T04:55:14.202Z,19.11
2022-08-10T04:56:15.817Z,19.08
2022-08-10T04:57:17.421Z,19.02
2022-08-10T04:58:18.868Z,19.01
2022-08-10T04:59:20.389Z,18.76
2022-08-10T05:00:21.853Z,18.87
2022-08-10T05:01:24.980Z,18.76
2022-08-10T05:02:30.835Z,18.72
2022-08-10T05:03:34.000Z,18.63
2022-08-10T05:05:40.763Z,18.87
2022-08-10T05:06:42.295Z,18.84
2022-08-10T05:07:54.048Z,18.85
2022-08-10T05:08:58.635Z,19.31
2022-08-10T05:10:00.640Z,19.13
2022-08-10T05:11:24.086Z,18.96
2022-08-10T05:12:25.743Z,19.08
2022-08-10T05:13:27.508Z,19.2
2022-08-10T05:14:29.037Z,19.04
2022-08-10T05:15:30.560Z,18.93
2022-08-10T05:16:32.695Z,19.14
2022-08-10T05:17:34.290Z,19.75
2022-08-10T05:18:35.967Z,19.59
2022-08-10T05:20:02.765Z,20.04
2022-08-10T05:21:09.196Z,20.09
2022-08-10T05:22:10.793Z,20.29
2022-08-10T05:23:12.345Z,20.51
2022-08-10T05:24:13.815Z,20.19
2022-08-10T05:25:15.350Z,20.18
2022-08-10T06:20:03.415Z,21.96
2022-08-10T06:21:05.569Z,22.01
2022-08-10T06:22:07.212Z,22.31
2022-08-10T06:23:08.926Z,22.64
2022-08-10T06:24:10.621Z,23.06
2022-08-10T06:25:38.029Z,23.44
2022-08-10T06:27:34.373Z,23.59
2022-08-10T06:28:36.514Z,23.55
2022-08-10T06:29:38.152Z,24.02
2022-08-10T06:30:39.828Z,23.93
2022-08-10T06:31:47.374Z,23.73
2022-08-10T06:32:51.613Z,24.24
2022-08-10T06:33:53.268Z,23.92
2022-08-10T06:34:54.956Z,24.49
2022-08-10T06:35:56.679Z,24.36
2022-08-10T06:36:58.619Z,24.87
2022-08-10T06:38:00.631Z,24.84
2022-08-10T06:39:16.895Z,24.64
2022-08-10T06:40:38.713Z,24.38
2022-08-10T06:41:58.131Z,24.61
2022-08-10T06:43:19.942Z,24.87
2022-08-10T06:44:21.414Z,25.57
2022-08-10T06:45:23.065Z,25.78
2022-08-10T06:46:24.647Z,26.11
2022-08-10T06:47:26.125Z,25.9
2022-08-10T06:48:27.950Z,26.25
2022-08-10T06:49:29.383Z,25.97
2022-08-10T07:29:54.757Z,27.21
2022-08-10T07:30:56.842Z,28.14
2022-08-10T07:31:58.558Z,28.42
2022-08-10T07:33:00.358Z,28.77
2022-08-10T07:34:01.896Z,28.66
2022-08-10T07:35:03.505Z,28.06
2022-08-10T07:36:05.238Z,27.51
2022-08-10T07:37:06.917Z,27.38
2022-08-10T07:38:08.424Z,27.62
2022-08-10T07:39:10.025Z,27.65
2022-08-10T07:40:12.052Z,28.37
2022-08-10T07:41:14.183Z,28.68
2022-08-10T07:42:20.323Z,28.76
2022-08-10T07:43:21.832Z,28.72
2022-08-10T07:44:23.350Z,28.27
2022-08-10T07:45:24.865Z,27.4
2022-08-10T07:46:26.645Z,27.88
2022-08-10T07:47:46.031Z,27.86
2022-08-10T07:48:56.596Z,28.44
2022-08-10T07:49:58.261Z,28.46
2022-08-10T07:50:59.694Z,27.67
2022-08-10T07:52:01.318Z,28.07
2022-08-10T07:53:02.920Z,28.51
2022-08-10T07:54:06.213Z,28.57
2022-08-10T07:55:07.655Z,28.47
2022-08-10T07:56:21.125Z,28.34
2022-08-10T07:57:50.681Z,28.02
2022-08-10T08:08:08.312Z,28.15
2022-08-10T08:09:09.925Z,28.46
2022-08-10T08:10:11.694Z,28.38
2022-08-10T08:11:25.879Z,28.87
2022-08-10T08:12:28.171Z,29.04
2022-08-10T08:13:38.269Z,28.87
2022-08-10T08:14:39.875Z,28.63
2022-08-10T08:16:14.672Z,28.92
2022-08-10T08:17:23.631Z,29.22
2022-08-10T08:18:37.914Z,29.5
2022-08-10T08:20:28.804Z,29.92
2022-08-10T08:24:03.620Z,29.35
2022-08-10T08:29:46.924Z,30.08
2022-08-10T08:30:48.985Z,30.3
2022-08-10T08:31:54.325Z,30.58
2022-08-10T08:33:05.709Z,30.71
2022-08-10T08:34:07.195Z,30.77
2022-08-10T08:35:08.777Z,30.43
2022-08-10T08:36:10.440Z,30.31
2022-08-10T08:37:11.891Z,30.75
2022-08-10T08:39:35.466Z,31.42
2022-08-10T08:40:37.899Z,31.56
2022-08-10T08:41:39.615Z,30.85
2022-08-10T08:42:41.219Z,31.22
2022-08-10T08:43:42.779Z,30.65
2022-08-10T08:44:44.240Z,30.38
2022-08-10T08:45:58.723Z,30.31
2022-08-10T08:47:04.078Z,31.1
2022-08-10T08:49:07.657Z,31.51
2022-08-10T08:50:10.152Z,31.24
2022-08-10T08:51:12.229Z,30.85
2022-08-10T08:52:18.003Z,31.19
2022-08-10T08:53:22.099Z,31.22
2022-08-10T08:54:24.280Z,30.86
2022-08-10T08:55:50.111Z,30.95
2022-08-10T08:57:08.688Z,31.23
2022-08-10T08:58:10.182Z,31.06
2022-08-10T08:59:11.602Z,30.78
2022-08-10T09:00:13.107Z,31.44
2022-08-10T09:01:15.179Z,31.02
2022-08-10T09:02:18.727Z,31.8
2022-08-10T09:03:22.138Z,31.81
2022-08-10T09:04:31.323Z,32.27
2022-08-10T09:05:32.805Z,32.25
2022-08-10T09:07:02.908Z,32.8
2022-08-10T09:08:04.468Z,32.86
2022-08-10T09:09:06.026Z,32.77
2022-08-10T09:10:07.530Z,33.07
2022-08-10T09:11:09.044Z,32.54
2022-08-10T09:12:10.519Z,32.23
2022-08-10T09:13:12.129Z,32.93
2022-08-10T09:14:13.570Z,33.21
2022-08-10T09:15:39.369Z,32.98
2022-08-10T09:16:43.285Z,33.2
2022-08-10T09:17:44.764Z,32.95
2022-08-10T09:18:46.213Z,32.54
2022-08-10T09:19:47.691Z,32.26
2022-08-10T10:11:38.206Z,31.44
2022-08-10T10:12:39.945Z,31.59
2022-08-10T10:13:52.943Z,31.14
2022-08-10T10:15:24.584Z,31.47
2022-08-10T10:16:27.638Z,31.89
2022-08-10T10:17:29.155Z,31.99
2022-08-10T10:18:30.660Z,31.22
2022-08-10T10:19:32.187Z,31.7
2022-08-10T10:20:41.793Z,32.06
2022-08-10T10:21:54.893Z,31.53
2022-08-10T10:22:58.333Z,31.77
2022-08-10T10:24:21.489Z,31.88
2022-08-10T10:25:24.500Z,32.54
2022-08-10T10:26:58.908Z,32.68
2022-08-10T10:28:04.745Z,32.86
2022-08-10T10:29:25.109Z,32.46
2022-08-10T10:31:00.630Z,31.98
2022-08-10T10:32:02.258Z,30.73
2022-08-10T10:33:04.554Z,30.77
2022-08-10T10:34:06.057Z,31.43
2022-08-10T10:35:07.583Z,31.38
2022-08-10T10:36:09.266Z,31.64
2022-08-10T10:37:13.057Z,31.57
2022-08-10T10:38:14.800Z,31.71
2022-08-10T10:39:18.458Z,31.74
2022-08-10T10:40:25.877Z,31.5
2022-08-10T10:41:27.411Z,31.61
2022-08-10T10:42:44.619Z,31.6
2022-08-10T10:43:47.342Z,32.07
2022-08-10T10:44:49.127Z,32.07
2022-08-10T10:45:51.019Z,32.47
2022-08-10T10:46:52.727Z,32.38
2022-08-10T10:47:54.219Z,32.51
2022-08-10T10:48:55.826Z,32.72
2022-08-10T10:49:57.391Z,32.46
2022-08-10T10:50:58.989Z,32.85
2022-08-10T10:52:02.116Z,32.66
2022-08-10T10:53:03.923Z,31.78
2022-08-10T10:54:05.465Z,32.15
2022-08-10T10:55:06.965Z,32.7
2022-08-10T10:56:14.062Z,32.26
2022-08-10T10:57:17.887Z,32.43
2022-08-10T10:58:20.737Z,31.79
2022-08-10T10:59:35.533Z,32.32
2022-08-10T11:00:59.270Z,32.61
2022-08-10T11:02:01.055Z,32.79
2022-08-10T11:03:02.556Z,32.9
2022-08-10T11:04:04.119Z,32.67
2022-08-10T11:05:05.728Z,32.92
2022-08-10T11:06:09.584Z,32.91
2022-08-10T11:07:11.283Z,32.52
2022-08-10T11:08:29.366Z,32.94
2022-08-10T11:10:04.320Z,33.16
2022-08-10T11:12:01.153Z,33.3
2022-08-10T11:14:23.964Z,33.47
2022-08-10T11:15:31.159Z,33.66
2022-08-10T11:16:33.258Z,33.57
2022-08-10T11:17:35.097Z,33.04
2022-08-10T11:18:37.305Z,33.58
2022-08-10T11:20:00.632Z,34.08
2022-08-10T11:21:05.895Z,33.94
2022-08-10T11:22:07.459Z,33.86
2022-08-10T11:23:09.150Z,34.4
2022-08-10T11:24:43.136Z,34.16
2022-08-10T11:25:51.996Z,33.46
2022-08-10T11:26:56.060Z,33.4
2022-08-10T11:27:57.665Z,33.91
2022-08-10T11:28:59.264Z,33.75
2022-08-10T11:30:00.746Z,33.94
2022-08-10T11:31:02.276Z,34
2022-08-10T11:32:03.799Z,34.07
2022-08-10T11:33:05.258Z,33.81
2022-08-10T11:34:46.621Z,33.17
2022-08-10T11:36:14.084Z,33.63
2022-08-10T11:37:15.585Z,33.29
2022-08-10T11:38:28.359Z,32.11
2022-08-10T11:40:14.815Z,32.99
2022-08-10T11:42:07.056Z,33.33
2022-08-10T11:43:37.003Z,33.09
2022-08-10T11:44:38.485Z,33.52
2022-08-10T11:45:51.590Z,31.94
2022-08-10T11:46:56.921Z,32
2022-08-10T11:47:58.663Z,32.38
2022-08-10T11:49:03.512Z,32.92
2022-08-10T11:50:05.567Z,32.64
2022-08-10T11:51:07.019Z,33.04
2022-08-10T11:52:08.492Z,33.27
2022-08-10T11:53:10.053Z,33.22
2022-08-10T11:54:11.677Z,33.51
2022-08-10T11:55:13.130Z,33.85
2022-08-10T11:56:17.807Z,34.02
2022-08-10T11:57:19.396Z,33.86
2022-08-10T11:58:54.451Z,33.99
2022-08-10T11:59:57.783Z,34.1
2022-08-10T12:01:00.932Z,33.33
2022-08-10T12:02:02.472Z,33.52
2022-08-10T12:03:04.427Z,34.11
2022-08-10T12:04:06.331Z,34.25
2022-08-10T12:05:13.748Z,33.56
2022-08-10T12:06:15.304Z,34.02
2022-08-10T12:08:54.591Z,34.44
2022-08-10T12:11:22.554Z,33.77
2022-08-10T12:12:27.052Z,33.86
2022-08-10T12:13:28.815Z,33.79
2022-08-10T12:14:30.447Z,34.07
2022-08-10T12:15:32.172Z,34.47
2022-08-10T12:16:33.699Z,34.21
2022-08-10T12:17:35.211Z,33.46
2022-08-10T12:18:36.645Z,33.61
2022-08-10T12:19:58.867Z,33.77
2022-08-10T12:21:05.448Z,34.23
2022-08-10T12:22:07.005Z,34.8
2022-08-10T12:23:08.662Z,34.61
2022-08-10T12:24:10.140Z,34.95
2022-08-10T12:25:11.719Z,35.18
2022-08-10T12:27:00.018Z,35.2
2022-08-10T12:28:01.553Z,35.15
2022-08-10T12:29:03.078Z,34.96
2022-08-10T12:30:04.666Z,34.98
2022-08-10T12:31:06.201Z,34.17
2022-08-10T12:32:07.737Z,32.41
2022-08-10T12:33:09.434Z,32.66
2022-08-10T12:34:10.907Z,32.6
2022-08-10T12:35:12.615Z,33.39
2022-08-10T12:36:28.002Z,33.89
2022-08-10T12:37:29.548Z,34.01
2022-08-10T12:38:31.149Z,34.24
2022-08-10T12:39:32.730Z,34.41
2022-08-10T12:40:36.255Z,34.78
2022-08-10T12:41:44.217Z,34.96
2022-08-10T12:42:59.192Z,35.14
2022-08-10T12:45:10.410Z,34.18
2022-08-10T12:46:11.917Z,34.65
2022-08-10T12:47:14.036Z,34.85
2022-08-10T12:48:16.152Z,35.01
2022-08-10T12:49:17.635Z,34.53
2022-08-10T12:50:30.095Z,34.42
2022-08-10T12:51:35.667Z,34.2
2022-08-10T12:52:37.302Z,34.85
2022-08-10T12:53:39.624Z,35.07
2022-08-10T12:54:41.089Z,35
2022-08-10T12:55:42.693Z,35.14
2022-08-10T12:56:44.238Z,35.87
2022-08-10T12:57:45.813Z,35.45
2022-08-10T12:58:56.997Z,34.84
2022-08-10T13:00:03.330Z,34.45
2022-08-10T13:01:17.928Z,34.08
2022-08-10T13:02:20.074Z,34.23
2022-08-10T13:04:22.208Z,34.26
2022-08-10T13:05:26.105Z,35.67
2022-08-10T13:06:27.739Z,35.78
2022-08-10T13:08:04.316Z,35.45
2022-08-10T13:09:29.735Z,35.87
2022-08-10T13:10:31.558Z,35.96
2022-08-10T13:12:34.446Z,35.69
2022-08-10T13:13:47.061Z,35.52
2022-08-10T13:14:52.714Z,35.89
2022-08-10T13:15:54.349Z,36.24
2022-08-10T13:16:55.960Z,36.3
2022-08-10T13:17:57.950Z,36.02
2022-08-10T13:18:59.539Z,35.24
2022-08-10T13:20:05.672Z,34.64
2022-08-10T13:21:19.761Z,34.29
2022-08-10T13:22:22.831Z,35.36
2022-08-10T13:23:24.337Z,35.73
2022-08-10T13:24:25.839Z,36.04
2022-08-10T13:25:27.407Z,35.86
2022-08-10T13:26:28.911Z,36.02
2022-08-10T13:28:00.391Z,35.88
2022-08-10T13:29:41.278Z,35.94
2022-08-10T13:30:43.017Z,36.98
2022-08-10T13:32:03.528Z,36.76
2022-08-10T13:33:12.734Z,36.85
2022-08-10T13:34:41.992Z,36.13
2022-08-10T13:35:47.010Z,36.32
2022-08-10T13:36:48.713Z,36.35
2022-08-10T13:37:50.361Z,36.46
2022-08-10T13:38:52.132Z,36.55
2022-08-10T13:39:58.574Z,37.18
2022-08-10T13:41:02.619Z,37.34
2022-08-10T13:42:04.110Z,37.27
2022-08-10T13:43:05.824Z,37.44
2022-08-10T13:44:07.320Z,37.23
2022-08-10T13:45:08.901Z,38.23
2022-08-10T13:46:10.365Z,38.14
2022-08-10T13:47:24.392Z,38.44
2022-08-10T13:48:25.826Z,38.82
2022-08-10T13:49:27.354Z,39.6
2022-08-10T13:50:33.842Z,40.25
2022-08-10T13:51:53.498Z,40.61
2022-08-10T13:53:01.397Z,39.72
2022-08-10T13:54:03.225Z,40.86
2022-08-10T13:55:04.688Z,41.4
2022-08-10T13:56:06.152Z,40.07
2022-08-10T13:57:07.616Z,38.47
2022-08-10T13:58:09.152Z,39.16
2022-08-10T13:59:10.679Z,40.19
2022-08-10T14:00:33.423Z,40.28
2022-08-10T14:01:40.116Z,39.44
2022-08-10T14:02:41.771Z,40.26
2022-08-10T14:03:43.393Z,41.16
2022-08-10T14:04:45.088Z,40.44
2022-08-10T14:05:46.604Z,41.4
2022-08-10T14:06:48.106Z,42.27
2022-08-10T14:08:00.622Z,42.27
2022-08-10T14:09:02.903Z,42.48
2022-08-10T14:10:04.478Z,42.85
2022-08-10T14:11:10.208Z,42.6
2022-08-10T14:12:13.900Z,43.43
2022-08-10T14:13:15.386Z,41.89
2022-08-10T14:14:16.908Z,41.83
2022-08-10T14:15:18.373Z,42.65
2022-08-10T14:16:20.159Z,42.85
2022-08-10T14:17:21.652Z,42.25
2022-08-10T14:18:23.101Z,43.25
2022-08-10T14:19:24.689Z,42.91
2022-08-10T14:20:28.786Z,42.37
2022-08-10T14:21:30.218Z,42.03
2022-08-10T14:22:34.317Z,41.35
2022-08-10T14:23:36.192Z,40.53
2022-08-10T14:24:37.832Z,39.03
2022-08-10T14:25:39.402Z,37.73
2022-08-10T14:26:41.062Z,38.39
2022-08-10T14:28:01.751Z,38.7
2022-08-10T14:29:05.608Z,38.53
2022-08-10T14:30:07.184Z,38.73
2022-08-10T14:31:08.744Z,39.38
2022-08-10T14:32:10.281Z,39.78
2022-08-10T14:33:11.874Z,39.11
2022-08-10T14:34:13.356Z,40.51
2022-08-10T14:36:17.174Z,41.68
2022-08-10T14:37:26.294Z,41.26
2022-08-10T14:38:28.288Z,41.44
2022-08-10T14:39:29.954Z,41.68
2022-08-10T14:40:31.724Z,43
2022-08-10T14:42:00.590Z,43.64
2022-08-10T14:43:29.208Z,42.86
2022-08-10T14:44:30.908Z,43.05
2022-08-10T14:45:32.575Z,43.03
2022-08-10T14:46:34.092Z,42.07
2022-08-10T14:47:52.943Z,42.6
2022-08-10T14:49:25.172Z,42.64
2022-08-10T14:50:31.866Z,41.94
2022-08-10T14:51:44.024Z,42.51
2022-08-10T14:52:46.234Z,43.5
2022-08-10T14:53:47.698Z,42.77
2022-08-10T14:54:49.330Z,42.71
2022-08-10T14:55:57.497Z,43.08
2022-08-10T14:57:10.781Z,42.9
2022-08-10T14:58:20.455Z,43.65
2022-08-10T14:59:23.415Z,43.58
2022-08-10T15:01:59.646Z,42.45
2022-08-10T15:04:02.701Z,42.84
2022-08-10T15:05:08.991Z,43.29
2022-08-10T15:06:16.947Z,43.01
2022-08-10T15:07:20.586Z,41.93
2022-08-10T15:08:22.343Z,41.84
2022-08-10T15:09:23.922Z,42.36
2022-08-10T15:10:25.594Z,42.84
2022-08-10T15:12:12.497Z,42.95
2022-08-10T15:13:33.525Z,42.95
2022-08-10T15:14:42.062Z,42.44
2022-08-10T15:16:11.210Z,43.08
2022-08-10T15:17:15.247Z,43.53
2022-08-10T15:18:16.698Z,43.8
2022-08-10T15:19:34.155Z,42.29
2022-08-10T15:21:16.926Z,42.92
2022-08-10T15:22:36.938Z,42.44
2022-08-10T15:24:05.002Z,41.54
2022-08-10T15:25:16.069Z,41.67
2022-08-10T15:26:27.169Z,42.02
2022-08-10T15:27:29.367Z,42.14
2022-08-10T15:28:33.302Z,42.43
2022-08-10T15:30:30.314Z,42.74
2022-08-10T15:31:33.696Z,43.01
2022-08-10T15:32:35.282Z,42.36
2022-08-10T15:33:56.697Z,42.8
2022-08-10T15:35:06.448Z,42.8
2022-08-10T15:36:07.992Z,44.27
2022-08-10T15:37:36.181Z,43.29
2022-08-10T15:38:44.406Z,43.36
2022-08-10T15:40:22.704Z,43.96
2022-08-10T15:41:57.325Z,43.91
2022-08-10T15:43:02.082Z,42.69
2022-08-10T15:44:26.533Z,42.77
2022-08-10T15:45:29.102Z,42.77
2022-08-10T15:46:30.664Z,42.2
2022-08-10T15:47:45.564Z,41.56
2022-08-10T15:48:48.441Z,42.27
2022-08-10T15:49:50.009Z,42.72
2022-08-10T15:50:53.455Z,42.79
2022-08-10T15:51:55.108Z,44.21
2022-08-10T15:53:01.436Z,44.39
2022-08-10T15:54:04.763Z,43.52
2022-08-10T15:55:41.990Z,42.59
2022-08-10T15:56:47.366Z,43.53
2022-08-10T15:57:48.772Z,43.59
2022-08-10T15:58:50.270Z,43.95
2022-08-10T15:59:53.506Z,43
2022-08-10T16:00:56.938Z,43.26
2022-08-10T16:02:04.905Z,43.55
2022-08-10T16:03:19.568Z,41.79
2022-08-10T16:04:22.085Z,43.3
2022-08-10T16:05:40.929Z,44.13
2022-08-10T16:07:07.309Z,41.83
2022-08-10T16:08:09.117Z,42.47
2022-08-10T16:10:11.709Z,42.64
2022-08-10T16:11:38.045Z,42.8
2022-08-10T16:12:40.377Z,43.41
2022-08-10T16:13:51.220Z,42.55
2022-08-10T16:15:04.377Z,42.7
2022-08-10T16:16:11.123Z,42.25
2022-08-10T16:17:12.659Z,42.45
2022-08-10T16:18:15.186Z,42.48
2022-08-10T16:19:22.553Z,42.19
2022-08-10T16:20:27.194Z,42.27
2022-08-10T16:21:28.675Z,42.88
2022-08-10T16:22:34.557Z,42.6
2022-08-10T16:23:40.960Z,43.04
2022-08-10T16:24:42.615Z,42.84
2022-08-10T16:25:44.404Z,43.09
2022-08-10T16:27:05.817Z,42.09
2022-08-10T16:28:07.258Z,42.04
2022-08-10T16:29:08.790Z,42.55
2022-08-10T16:30:10.263Z,43.55
2022-08-10T16:31:11.795Z,43.49
2022-08-10T16:32:13.297Z,44.24
2022-08-10T16:33:15.155Z,44.36
2022-08-10T16:34:18.114Z,44.06
2022-08-10T16:35:19.570Z,42.94
2022-08-10T16:36:21.099Z,42.8
2022-08-10T16:37:22.654Z,42.08
2022-08-10T16:38:24.457Z,42.97
2022-08-10T16:39:57.466Z,42.73
2022-08-10T16:41:20.304Z,42.56
2022-08-10T16:43:07.921Z,43.48
2022-08-10T16:44:09.493Z,44.08
2022-08-10T16:45:10.987Z,41.43
2022-08-10T16:46:12.533Z,42.21
2022-08-10T16:47:14.057Z,42.96
2022-08-10T16:48:15.605Z,41.12
2022-08-10T16:49:53.470Z,42.04
2022-08-10T16:50:54.900Z,42.83
2022-08-10T16:51:56.402Z,43.39
2022-08-10T16:52:57.895Z,40.86
2022-08-10T16:53:59.354Z,41.91
2022-08-10T16:55:00.955Z,41.63
2022-08-10T16:56:58.221Z,41.26
2022-08-10T16:57:59.782Z,41.28
2022-08-10T16:59:01.417Z,41.41
2022-08-10T17:00:03.139Z,41.53
2022-08-10T17:01:05.730Z,41.57
2022-08-10T17:02:14.567Z,40.83
2022-08-10T17:03:17.379Z,41.91
2022-08-10T17:06:01.943Z,41.25
2022-08-10T17:07:14.789Z,41.05
2022-08-10T17:08:16.390Z,41.44
2022-08-10T17:09:17.842Z,40.42
2022-08-10T17:10:19.384Z,41.21
2022-08-10T17:11:21.092Z,41.19
2022-08-10T17:12:22.704Z,40.44
2022-08-10T17:13:24.216Z,39.93
2022-08-10T17:14:25.896Z,40.89
2022-08-10T17:15:27.396Z,40.73
2022-08-10T17:16:28.821Z,40.63
2022-08-10T17:17:30.351Z,40.78
2022-08-10T17:18:41.010Z,40.61
2022-08-10T17:19:50.448Z,39.75
2022-08-10T17:20:51.969Z,40.28
2022-08-10T17:21:53.528Z,39.91
2022-08-10T17:22:55.115Z,39.61
2022-08-10T17:23:59.790Z,40.03
2022-08-10T17:25:01.309Z,39.99
2022-08-10T17:26:02.874Z,40.54
2022-08-10T17:28:02.936Z,38.96
2022-08-10T17:29:54.213Z,39.54